Time;durP1;ratioP1;P1;durP2;ratioP2;P2;SDS_P1;SDS_P2;PMS_P1;PMS_P2;Temp;Humidity;BMP_temperature;BMP_pressure;BME280_temperature;BME280_humidity;BME280_pressure;Samples;Min_cycle;Max_cycle;Signal;HPM_P1;HPM_P2
2022/10/15 00:01:06;;;;;;;;;;;11.10;99.90;;;;;;5042744;28;19920;-67
2022/10/15 00:03:34;;;;;;;;;;;11.10;99.90;;;;;;5036417;28;19921;-67
2022/10/15 00:06:02;;;;;;;;;;;11.10;99.90;;;;;;5041730;28;19963;-67
2022/10/15 00:08:28;;;;;;;;;;;11.10;99.90;;;;;;5042581;28;19925;-67
2022/10/15 00:10:53;;;;;;;;;;;11.10;99.90;;;;;;5041390;28;19975;-67
2022/10/15 00:13:19;;;;;;;;;;;11.10;99.90;;;;;;5040087;28;19976;-67
2022/10/15 00:15:44;;;;;;;;;;;11.10;99.90;;;;;;5041723;28;19917;-67
2022/10/15 00:18:10;;;;;;;;;;;11.10;99.90;;;;;;5042117;28;19920;-67
2022/10/15 00:20:35;;;;;;;;;;;11.10;99.90;;;;;;5041618;28;19921;-67
2022/10/15 00:23:01;;;;;;;;;;;11.20;99.90;;;;;;5041923;28;19916;-67
2022/10/15 00:25:27;;;;;;;;;;;11.20;99.90;;;;;;5046641;28;20287;-67
2022/10/15 00:27:52;;;;;;;;;;;11.20;99.90;;;;;;5042768;28;19917;-67
2022/10/15 00:30:18;;;;;;;;;;;11.30;99.90;;;;;;5038565;28;19921;-67
2022/10/15 00:32:43;;;;;;;;;;;11.20;99.90;;;;;;5039144;28;19975;-67
2022/10/15 00:35:09;;;;;;;;;;;11.30;99.90;;;;;;5042472;28;19951;-67
2022/10/15 00:37:34;;;;;;;;;;;11.30;99.90;;;;;;5040944;28;19956;-67
2022/10/15 00:40:00;;;;;;;;;;;11.30;99.90;;;;;;5038282;28;19921;-67
2022/10/15 00:42:26;;;;;;;;;;;11.30;99.90;;;;;;5040962;28;20366;-67
2022/10/15 00:44:53;;;;;;;;;;;11.30;99.90;;;;;;5044979;28;19924;-67
2022/10/15 00:47:22;;;;;;;;;;;11.40;99.90;;;;;;5043427;28;20023;-67
2022/10/15 00:49:53;;;;;;;;;;;11.40;99.90;;;;;;5044267;28;19921;-67
2022/10/15 00:52:35;;;;;;;;;;;11.40;99.90;;;;;;5041062;28;19924;-67
2022/10/15 00:55:07;;;;;;;;;;;11.40;99.90;;;;;;5045113;28;20281;-67
2022/10/15 00:57:33;;;;;;;;;;;11.40;99.90;;;;;;5038565;28;19917;-67
2022/10/15 01:00:00;;;;;;;;;;;11.40;99.90;;;;;;5041791;28;19916;-67
2022/10/15 01:02:26;;;;;;;;;;;11.40;99.90;;;;;;5040973;28;19966;-67
2022/10/15 01:04:52;;;;;;;;;;;11.40;99.90;;;;;;5042647;28;19924;-67
2022/10/15 01:07:18;;;;;;;;;;;11.40;99.90;;;;;;5043776;28;19924;-67
2022/10/15 01:09:45;;;;;;;;;;;11.40;99.90;;;;;;5044498;28;19936;-67
2022/10/15 01:12:15;;;;;;;;;;;11.40;99.90;;;;;;5037265;28;19925;-67
2022/10/15 01:14:46;;;;;;;;;;;11.40;99.90;;;;;;5041310;28;19920;-67
2022/10/15 01:17:12;;;;;;;;;;;11.40;99.90;;;;;;5040405;28;19940;-67
2022/10/15 01:19:50;;;;;;;;;;;11.40;99.90;;;;;;5034126;28;19939;-67
2022/10/15 01:22:20;;;;;;;;;;;11.40;99.90;;;;;;5043349;28;19940;-67
2022/10/15 01:25:12;;;;;;;;;;;11.40;99.90;;;;;;5039162;28;19961;-67
2022/10/15 01:27:41;;;;;;;;;;;11.40;99.90;;;;;;5022859;28;19916;-67
2022/10/15 01:30:13;;;;;;;;;;;11.40;99.90;;;;;;5039965;28;19917;-67
2022/10/15 01:32:59;;;;;;;;;;;11.50;99.90;;;;;;5039731;28;19920;-67
2022/10/15 01:35:57;;;;;;;;;;;11.40;99.90;;;;;;5026392;28;20341;-67
2022/10/15 01:38:22;;;;;;;;;;;11.50;99.90;;;;;;5013360;28;20285;-67
2022/10/15 01:40:48;;;;;;;;;;;11.40;99.90;;;;;;5040270;28;19924;-67
2022/10/15 01:43:21;;;;;;;;;;;11.50;99.90;;;;;;5041875;28;19921;-67
2022/10/15 01:45:58;;;;;;;;;;;11.50;99.90;;;;;;5043426;28;20368;-67
2022/10/15 01:48:26;;;;;;;;;;;11.50;99.90;;;;;;5038955;28;19942;-67
2022/10/15 01:50:53;;;;;;;;;;;11.50;99.90;;;;;;5037821;28;20074;-67
2022/10/15 01:53:25;;;;;;;;;;;11.50;99.90;;;;;;5041217;28;19979;-67
2022/10/15 01:55:53;;;;;;;;;;;11.40;99.90;;;;;;5036557;28;20021;-67
2022/10/15 01:58:19;;;;;;;;;;;11.50;99.90;;;;;;5038326;28;20356;-67
2022/10/15 02:00:46;;;;;;;;;;;11.50;99.90;;;;;;5041009;28;19932;-67
2022/10/15 02:03:11;;;;;;;;;;;11.40;99.90;;;;;;5039023;28;19916;-67
2022/10/15 02:05:44;;;;;;;;;;;11.40;99.90;;;;;;5040808;28;19917;-67
2022/10/15 02:08:17;;;;;;;;;;;11.40;99.90;;;;;;5042509;28;19916;-67
2022/10/15 02:11:02;;;;;;;;;;;11.50;99.90;;;;;;5042563;28;20024;-67
2022/10/15 02:13:46;;;;;;;;;;;11.50;99.90;;;;;;5044071;28;20028;-67
2022/10/15 02:16:24;;;;;;;;;;;11.40;99.90;;;;;;5042756;28;20377;-67
2022/10/15 02:19:12;;;;;;;;;;;11.50;99.90;;;;;;5050796;28;19917;-67
2022/10/15 02:21:43;;;;;;;;;;;11.50;99.90;;;;;;5043638;28;19925;-67
2022/10/15 02:24:11;;;;;;;;;;;11.40;99.90;;;;;;5043980;28;19917;-66
2022/10/15 02:26:38;;;;;;;;;;;11.50;99.90;;;;;;5040608;28;19971;-67
2022/10/15 02:29:06;;;;;;;;;;;11.50;99.90;;;;;;5042647;28;19932;-67
2022/10/15 02:31:32;;;;;;;;;;;11.50;99.90;;;;;;5043656;28;20521;-66
2022/10/15 02:34:01;;;;;;;;;;;11.50;99.90;;;;;;5042908;28;19931;-67
2022/10/15 02:36:27;;;;;;;;;;;11.50;99.90;;;;;;5040855;28;20235;-67
2022/10/15 02:38:54;;;;;;;;;;;11.50;99.90;;;;;;5042732;28;20395;-66
2022/10/15 02:41:19;;;;;;;;;;;11.50;99.90;;;;;;5045717;28;19916;-67
2022/10/15 02:43:45;;;;;;;;;;;11.50;99.90;;;;;;5045737;28;19951;-66
2022/10/15 02:46:12;;;;;;;;;;;11.50;99.90;;;;;;5040243;28;19916;-67
2022/10/15 02:48:37;;;;;;;;;;;11.50;99.90;;;;;;5047123;28;19932;-66
2022/10/15 02:51:03;;;;;;;;;;;11.50;99.90;;;;;;5046615;28;19916;-66
2022/10/15 02:53:29;;;;;;;;;;;11.50;99.90;;;;;;5045817;28;20007;-67
2022/10/15 02:55:54;;;;;;;;;;;11.50;99.90;;;;;;5044519;28;20333;-66
2022/10/15 02:58:20;;;;;;;;;;;11.50;99.90;;;;;;5044432;28;19946;-66
2022/10/15 03:00:45;;;;;;;;;;;11.50;99.90;;;;;;5043500;28;19925;-66
2022/10/15 03:03:11;;;;;;;;;;;11.50;99.90;;;;;;5040860;28;20003;-67
2022/10/15 03:05:37;;;;;;;;;;;11.50;99.90;;;;;;5047451;28;20059;-66
2022/10/15 03:08:02;;;;;;;;;;;11.40;99.90;;;;;;5040755;28;19936;-67
2022/10/15 03:10:28;;;;;;;;;;;11.40;99.90;;;;;;5049319;28;19924;-66
2022/10/15 03:12:53;;;;;;;;;;;11.40;99.90;;;;;;5038419;28;20292;-66
2022/10/15 03:15:19;;;;;;;;;;;11.50;99.90;;;;;;5045238;28;20298;-67
2022/10/15 03:17:45;;;;;;;;;;;11.50;99.90;;;;;;5043362;28;19916;-66
2022/10/15 03:20:10;;;;;;;;;;;11.50;99.90;;;;;;5042500;28;19921;-66
2022/10/15 03:22:36;;;;;;;;;;;11.50;99.90;;;;;;5046925;28;19957;-66
2022/10/15 03:25:02;;;;;;;;;;;11.50;99.90;;;;;;5043300;28;20237;-66
2022/10/15 03:27:27;;;;;;;;;;;11.40;99.90;;;;;;5039775;28;19975;-66
2022/10/15 03:29:53;;;;;;;;;;;11.40;99.90;;;;;;5046893;28;19947;-66
2022/10/15 03:32:18;;;;;;;;;;;11.50;99.90;;;;;;5038449;28;19940;-66
2022/10/15 03:34:44;;;;;;;;;;;11.40;99.90;;;;;;5043163;28;19938;-66
2022/10/15 03:37:10;;;;;;;;;;;11.40;99.90;;;;;;5041132;28;19925;-66
2022/10/15 03:39:35;;;;;;;;;;;11.40;99.90;;;;;;5045740;28;20229;-66
2022/10/15 03:42:01;;;;;;;;;;;11.40;99.90;;;;;;5044551;28;19969;-66
2022/10/15 03:44:26;;;;;;;;;;;11.40;99.90;;;;;;5038151;28;19917;-66
2022/10/15 03:46:52;;;;;;;;;;;11.40;99.90;;;;;;5044565;28;20304;-66
2022/10/15 03:49:17;;;;;;;;;;;11.30;99.90;;;;;;5041950;28;20383;-66
2022/10/15 03:51:43;;;;;;;;;;;11.30;99.90;;;;;;5042685;28;19924;-66
2022/10/15 03:54:09;;;;;;;;;;;11.30;99.90;;;;;;5039260;28;19917;-66
2022/10/15 03:56:34;;;;;;;;;;;11.30;99.90;;;;;;5045915;28;19927;-66
2022/10/15 03:59:00;;;;;;;;;;;11.30;99.90;;;;;;5044137;28;19921;-66
2022/10/15 04:01:25;;;;;;;;;;;11.30;99.90;;;;;;5039499;28;20015;-66
2022/10/15 04:03:52;;;;;;;;;;;11.20;99.90;;;;;;5038995;28;19974;-66
2022/10/15 04:06:17;;;;;;;;;;;11.20;99.90;;;;;;5041885;28;19978;-66
2022/10/15 04:08:43;;;;;;;;;;;11.20;99.90;;;;;;5037388;28;20024;-66
2022/10/15 04:11:08;;;;;;;;;;;11.20;99.90;;;;;;5038322;28;20012;-66
2022/10/15 04:13:34;;;;;;;;;;;11.10;99.90;;;;;;5044840;28;19924;-67
2022/10/15 04:16:02;;;;;;;;;;;11.10;99.90;;;;;;5037745;28;19986;-66
2022/10/15 04:18:28;;;;;;;;;;;11.10;99.90;;;;;;5042602;28;19975;-66
2022/10/15 04:20:57;;;;;;;;;;;11.10;99.90;;;;;;5036747;28;19986;-66
2022/10/15 04:23:22;;;;;;;;;;;11.00;99.90;;;;;;5041279;28;19920;-66
2022/10/15 04:25:48;;;;;;;;;;;11.00;99.90;;;;;;5036184;28;19921;-66
2022/10/15 04:28:13;;;;;;;;;;;11.00;99.90;;;;;;5040844;28;20075;-66
2022/10/15 04:30:39;;;;;;;;;;;10.90;99.90;;;;;;5041468;28;19967;-66
2022/10/15 04:33:04;;;;;;;;;;;10.90;99.90;;;;;;5037971;28;19932;-66
2022/10/15 04:35:30;;;;;;;;;;;10.90;99.90;;;;;;5040013;28;20369;-66
2022/10/15 04:37:57;;;;;;;;;;;10.90;99.90;;;;;;5036547;28;20000;-66
2022/10/15 04:40:23;;;;;;;;;;;10.80;99.90;;;;;;5041552;28;19917;-66
2022/10/15 04:42:48;;;;;;;;;;;10.70;99.90;;;;;;5040372;28;20012;-66
2022/10/15 04:45:14;;;;;;;;;;;10.70;99.90;;;;;;5042174;28;19917;-66
2022/10/15 04:47:39;;;;;;;;;;;10.70;99.90;;;;;;5037219;28;19999;-66
2022/10/15 04:50:05;;;;;;;;;;;10.60;99.90;;;;;;5045396;28;19920;-66
2022/10/15 04:52:32;;;;;;;;;;;10.60;99.90;;;;;;5040784;28;19917;-66
2022/10/15 04:54:58;;;;;;;;;;;10.60;99.90;;;;;;5041625;28;19975;-66
2022/10/15 04:57:24;;;;;;;;;;;10.50;99.90;;;;;;5041214;28;19917;-66
2022/10/15 04:59:51;;;;;;;;;;;10.60;99.90;;;;;;5037448;28;19924;-66
2022/10/15 05:02:17;;;;;;;;;;;10.50;99.90;;;;;;5042960;28;19928;-66
2022/10/15 05:04:42;;;;;;;;;;;10.50;99.90;;;;;;5039257;28;19917;-66
2022/10/15 05:07:08;;;;;;;;;;;10.50;99.90;;;;;;5043606;28;19931;-66
2022/10/15 05:09:34;;;;;;;;;;;10.50;99.90;;;;;;5039076;28;19921;-66
2022/10/15 05:11:59;;;;;;;;;;;10.50;99.90;;;;;;5037127;28;19927;-66
2022/10/15 05:14:25;;;;;;;;;;;10.50;99.90;;;;;;5041359;28;20012;-66
2022/10/15 05:16:50;;;;;;;;;;;10.50;99.90;;;;;;5054583;28;19949;-66
2022/10/15 05:19:16;;;;;;;;;;;10.50;99.90;;;;;;5038992;28;19932;-66
2022/10/15 05:21:42;;;;;;;;;;;10.50;99.90;;;;;;5039926;28;20320;-66
2022/10/15 05:24:08;;;;;;;;;;;10.60;99.90;;;;;;5037607;28;19917;-66
2022/10/15 05:26:33;;;;;;;;;;;10.60;99.90;;;;;;5040721;28;20227;-66
2022/10/15 05:28:59;;;;;;;;;;;10.60;99.90;;;;;;5043386;28;20070;-66
2022/10/15 05:31:26;;;;;;;;;;;10.70;99.90;;;;;;5043550;28;19929;-66
2022/10/15 05:33:53;;;;;;;;;;;10.70;99.90;;;;;;5042396;28;20384;-66
2022/10/15 05:36:20;;;;;;;;;;;10.60;99.90;;;;;;5040719;28;19917;-66
2022/10/15 05:38:46;;;;;;;;;;;10.70;99.90;;;;;;5042715;28;19917;-66
2022/10/15 05:41:12;;;;;;;;;;;10.70;99.90;;;;;;5039816;28;19925;-66
2022/10/15 05:43:37;;;;;;;;;;;10.80;99.90;;;;;;5044546;28;20278;-66
2022/10/15 05:46:03;;;;;;;;;;;10.80;99.90;;;;;;5048099;28;19924;-66
2022/10/15 05:48:28;;;;;;;;;;;10.80;99.90;;;;;;5038390;28;20028;-67
2022/10/15 05:50:59;;;;;;;;;;;10.80;99.90;;;;;;5044531;28;20391;-66
2022/10/15 05:53:25;;;;;;;;;;;10.80;99.90;;;;;;5042587;28;19921;-66
2022/10/15 05:55:51;;;;;;;;;;;10.90;99.90;;;;;;5045645;28;20016;-66
2022/10/15 05:58:17;;;;;;;;;;;10.90;99.90;;;;;;5041527;28;19917;-66
2022/10/15 06:00:42;;;;;;;;;;;10.90;99.90;;;;;;5042541;28;19932;-66
2022/10/15 06:03:11;;;;;;;;;;;10.90;99.90;;;;;;5044116;28;19924;-66
2022/10/15 06:05:36;;;;;;;;;;;10.90;99.90;;;;;;5043202;28;19921;-66
2022/10/15 06:08:02;;;;;;;;;;;11.00;99.90;;;;;;5040349;28;19917;-66
2022/10/15 06:10:27;;;;;;;;;;;11.00;99.90;;;;;;5047399;28;19950;-66
2022/10/15 06:12:53;;;;;;;;;;;11.00;99.90;;;;;;5044989;28;19963;-66
2022/10/15 06:15:18;;;;;;;;;;;11.10;99.90;;;;;;5044375;28;20030;-66
2022/10/15 06:17:44;;;;;;;;;;;11.10;99.90;;;;;;5044446;28;19916;-66
2022/10/15 06:20:10;;;;;;;;;;;11.10;99.90;;;;;;5040695;28;19917;-66
2022/10/15 06:22:36;;;;;;;;;;;11.20;99.90;;;;;;5039898;28;19923;-66
2022/10/15 06:25:01;;;;;;;;;;;11.20;99.90;;;;;;5035574;28;19928;-66
2022/10/15 06:27:27;;;;;;;;;;;11.20;99.90;;;;;;5041624;28;19925;-66
2022/10/15 06:29:52;;;;;;;;;;;11.30;99.90;;;;;;5040597;28;20016;-66
2022/10/15 06:32:18;;;;;;;;;;;11.30;99.90;;;;;;5043389;28;19917;-66
2022/10/15 06:34:43;;;;;;;;;;;11.40;99.90;;;;;;5039984;28;19923;-66
2022/10/15 06:37:09;;;;;;;;;;;11.40;99.90;;;;;;5041412;28;19920;-66
2022/10/15 06:39:35;;;;;;;;;;;11.40;99.90;;;;;;5039481;28;19921;-66
2022/10/15 06:42:00;;;;;;;;;;;11.40;99.90;;;;;;5036529;28;19917;-66
2022/10/15 06:44:26;;;;;;;;;;;11.40;99.90;;;;;;5042242;28;19921;-66
2022/10/15 06:46:51;;;;;;;;;;;11.50;99.90;;;;;;5037842;28;19917;-66
2022/10/15 06:49:17;;;;;;;;;;;11.50;99.90;;;;;;5021318;28;20282;-66
2022/10/15 06:51:43;;;;;;;;;;;11.50;99.90;;;;;;5041874;28;20351;-66
2022/10/15 06:54:08;;;;;;;;;;;11.60;99.90;;;;;;5040090;28;19928;-66
2022/10/15 06:56:34;;;;;;;;;;;11.60;99.90;;;;;;5031518;28;20377;-66
2022/10/15 06:59:00;;;;;;;;;;;11.70;99.90;;;;;;5035263;28;19920;-67
2022/10/15 07:01:25;;;;;;;;;;;11.70;99.90;;;;;;5037655;28;19993;-67
2022/10/15 07:03:51;;;;;;;;;;;11.70;99.90;;;;;;5024558;28;19920;-67
2022/10/15 07:06:17;;;;;;;;;;;11.80;99.90;;;;;;5043080;28;19923;-67
2022/10/15 07:08:43;;;;;;;;;;;11.90;99.90;;;;;;5044495;28;20011;-67
2022/10/15 07:11:09;;;;;;;;;;;11.90;99.90;;;;;;5042410;28;19936;-66
2022/10/15 07:13:35;;;;;;;;;;;12.10;99.90;;;;;;5037255;28;19921;-67
2022/10/15 07:16:08;;;;;;;;;;;12.20;99.90;;;;;;5040731;28;19921;-64
2022/10/15 07:18:34;;;;;;;;;;;12.30;99.90;;;;;;5016534;28;19932;-64
2022/10/15 07:21:00;;;;;;;;;;;12.30;99.90;;;;;;5019499;28;19920;-64
2022/10/15 07:23:26;;;;;;;;;;;12.40;99.90;;;;;;5022597;28;19921;-64
2022/10/15 07:25:52;;;;;;;;;;;12.40;99.90;;;;;;5025161;28;19925;-64
2022/10/15 07:28:17;;;;;;;;;;;12.40;99.90;;;;;;5021485;28;20044;-64
2022/10/15 07:30:43;;;;;;;;;;;12.40;99.90;;;;;;5025601;28;19921;-64
2022/10/15 07:33:08;;;;;;;;;;;12.40;99.90;;;;;;5022434;28;19972;-64
2022/10/15 07:35:35;;;;;;;;;;;12.40;99.90;;;;;;5024154;28;19924;-64
2022/10/15 07:38:01;;;;;;;;;;;12.40;99.90;;;;;;5020705;28;20545;-66
2022/10/15 07:40:26;;;;;;;;;;;12.50;99.90;;;;;;5023016;28;19921;-67
2022/10/15 07:42:53;;;;;;;;;;;12.50;99.90;;;;;;5021918;28;19921;-67
2022/10/15 07:45:18;;;;;;;;;;;12.50;99.90;;;;;;5021648;28;19921;-67
2022/10/15 07:47:44;;;;;;;;;;;12.80;99.90;;;;;;5022770;28;19932;-67
2022/10/15 07:50:10;;;;;;;;;;;13.00;99.90;;;;;;5023547;28;20044;-67
2022/10/15 07:52:35;;;;;;;;;;;13.10;99.90;;;;;;5026972;28;19975;-67
2022/10/15 07:55:01;;;;;;;;;;;13.00;99.90;;;;;;5023363;28;20323;-67
2022/10/15 07:57:26;;;;;;;;;;;13.00;99.90;;;;;;5016210;28;19964;-66
2022/10/15 07:59:52;;;;;;;;;;;12.90;99.90;;;;;;5021533;28;19971;-66
2022/10/15 08:02:17;;;;;;;;;;;12.80;99.90;;;;;;5015236;28;19917;-66
2022/10/15 08:04:43;;;;;;;;;;;12.80;99.90;;;;;;5022416;28;19967;-67
2022/10/15 08:07:09;;;;;;;;;;;12.80;99.90;;;;;;5020140;28;19963;-66
2022/10/15 08:09:34;;;;;;;;;;;12.90;99.90;;;;;;5020253;28;19925;-66
2022/10/15 08:12:00;;;;;;;;;;;13.00;99.90;;;;;;5016241;28;20553;-66
2022/10/15 08:14:26;;;;;;;;;;;12.90;99.90;;;;;;5022758;28;19920;-66
2022/10/15 08:16:52;;;;;;;;;;;12.90;99.90;;;;;;5023871;28;19948;-66
2022/10/15 08:19:17;;;;;;;;;;;13.00;99.90;;;;;;5027525;28;19917;-66
2022/10/15 08:21:43;;;;;;;;;;;13.00;99.90;;;;;;5021076;28;20328;-66
2022/10/15 08:24:09;;;;;;;;;;;13.10;99.90;;;;;;5022565;28;20264;-66
2022/10/15 08:26:35;;;;;;;;;;;13.10;99.90;;;;;;5025728;28;19918;-66
2022/10/15 08:29:00;;;;;;;;;;;13.10;99.90;;;;;;5024849;28;20007;-66
2022/10/15 08:31:26;;;;;;;;;;;13.20;99.90;;;;;;5025460;28;19924;-66
2022/10/15 08:33:52;;;;;;;;;;;13.20;99.90;;;;;;5022212;28;20389;-66
2022/10/15 08:36:18;;;;;;;;;;;13.10;99.90;;;;;;5026331;28;19971;-66
2022/10/15 08:38:43;;;;;;;;;;;13.20;99.90;;;;;;5023570;28;19920;-66
2022/10/15 08:41:25;;;;;;;;;;;13.20;99.90;;;;;;5023478;28;19955;-66
2022/10/15 08:43:50;;;;;;;;;;;13.30;99.90;;;;;;5019069;28;20020;-66
2022/10/15 08:46:22;;;;;;;;;;;13.20;99.90;;;;;;5024381;28;20007;-66
2022/10/15 08:48:52;;;;;;;;;;;13.20;99.90;;;;;;5022064;28;19927;-66
2022/10/15 08:51:19;;;;;;;;;;;13.20;99.90;;;;;;5023402;28;19917;-66
2022/10/15 08:53:49;;;;;;;;;;;13.30;99.90;;;;;;5025387;28;19925;-66
2022/10/15 08:56:25;;;;;;;;;;;13.30;99.90;;;;;;5020021;28;19917;-66
2022/10/15 08:59:03;;;;;;;;;;;13.30;99.90;;;;;;5021061;28;19921;-66
2022/10/15 09:01:37;;;;;;;;;;;13.30;99.90;;;;;;5024737;28;19956;-66
2022/10/15 09:04:03;;;;;;;;;;;13.30;99.90;;;;;;5016887;28;19917;-66
2022/10/15 09:06:36;;;;;;;;;;;13.30;99.90;;;;;;5017764;28;20032;-66
2022/10/15 09:09:01;;;;;;;;;;;13.20;99.90;;;;;;5024352;28;19921;-66
2022/10/15 09:11:45;;;;;;;;;;;13.30;99.90;;;;;;5027396;28;20353;-66
2022/10/15 09:14:14;;;;;;;;;;;13.30;99.90;;;;;;5019283;28;20023;-66
2022/10/15 09:16:40;;;;;;;;;;;13.20;99.90;;;;;;5021770;28;20292;-66
2022/10/15 09:19:15;;;;;;;;;;;13.20;99.90;;;;;;5019911;28;19921;-66
2022/10/15 09:21:41;;;;;;;;;;;13.10;99.90;;;;;;5015890;28;19924;-66
2022/10/15 09:24:09;;;;;;;;;;;13.10;99.90;;;;;;5014937;28;20409;-66
2022/10/15 09:26:34;;;;;;;;;;;13.10;99.90;;;;;;5017285;28;19922;-66
2022/10/15 09:29:21;;;;;;;;;;;13.00;99.90;;;;;;5021239;28;20445;-66
2022/10/15 09:31:50;;;;;;;;;;;13.00;99.90;;;;;;5022265;28;20281;-66
2022/10/15 09:34:18;;;;;;;;;;;13.00;99.90;;;;;;5022748;28;19924;-66
2022/10/15 09:37:22;;;;;;;;;;;13.00;99.90;;;;;;5019209;28;19984;-66
2022/10/15 09:40:06;;;;;;;;;;;13.00;99.90;;;;;;4966591;28;19918;-66
2022/10/15 09:42:39;;;;;;;;;;;13.10;99.90;;;;;;4959633;28;19918;-66
2022/10/15 09:45:08;;;;;;;;;;;13.10;99.90;;;;;;4995197;28;19936;-66
2022/10/15 09:47:35;;;;;;;;;;;13.10;99.90;;;;;;5023336;28;19987;-66
2022/10/15 09:50:02;;;;;;;;;;;13.10;99.90;;;;;;5021494;28;20441;-66
2022/10/15 09:52:54;;;;;;;;;;;13.20;99.90;;;;;;5022469;28;19996;-66
2022/10/15 09:55:28;;;;;;;;;;;13.20;99.90;;;;;;4998983;28;19925;-66
2022/10/15 09:57:57;;;;;;;;;;;13.10;99.90;;;;;;5015595;28;19924;-66
2022/10/15 10:00:23;;;;;;;;;;;13.20;99.90;;;;;;5018979;28;20276;-65
2022/10/15 10:03:05;;;;;;;;;;;13.30;99.90;;;;;;5017753;28;19917;-65
2022/10/15 10:05:34;;;;;;;;;;;13.30;99.90;;;;;;5018715;28;20408;-66
2022/10/15 10:08:06;;;;;;;;;;;13.30;99.90;;;;;;5025909;28;19925;-66
2022/10/15 10:10:33;;;;;;;;;;;13.30;99.90;;;;;;5024340;28;20281;-68
2022/10/15 10:12:58;;;;;;;;;;;13.30;99.90;;;;;;5023596;28;20478;-65
2022/10/15 10:15:31;;;;;;;;;;;13.40;99.90;;;;;;5020614;28;19932;-64
2022/10/15 10:17:57;;;;;;;;;;;13.40;99.90;;;;;;5024872;28;19921;-65
2022/10/15 10:20:24;;;;;;;;;;;13.50;99.90;;;;;;5019261;28;20055;-65
2022/10/15 10:22:54;;;;;;;;;;;13.50;99.90;;;;;;5023239;28;19924;-65
2022/10/15 10:25:25;;;;;;;;;;;13.60;99.90;;;;;;5022769;28;19925;-65
2022/10/15 10:27:55;;;;;;;;;;;13.60;99.90;;;;;;5024519;28;20350;-65
2022/10/15 10:30:21;;;;;;;;;;;13.70;99.90;;;;;;5026236;28;19921;-63
2022/10/15 10:32:47;;;;;;;;;;;13.80;99.90;;;;;;5023090;28;19952;-63
2022/10/15 10:35:21;;;;;;;;;;;14.40;99.90;;;;;;5022273;28;20361;-63
2022/10/15 10:37:46;;;;;;;;;;;16.10;99.90;;;;;;5021156;28;20269;-63
2022/10/15 10:40:28;;;;;;;;;;;17.40;99.90;;;;;;5025610;28;19917;-64
2022/10/15 10:43:13;;;;;;;;;;;18.00;99.90;;;;;;5024974;28;19940;-64
2022/10/15 10:45:50;;;;;;;;;;;17.40;99.90;;;;;;5023402;28;19918;-64
2022/10/15 10:48:17;;;;;;;;;;;16.90;99.90;;;;;;5021710;28;19921;-64
2022/10/15 10:50:43;;;;;;;;;;;16.50;99.90;;;;;;5023116;28;19964;-64
2022/10/15 10:53:23;;;;;;;;;;;16.30;99.90;;;;;;5025015;28;20034;-64
2022/10/15 10:55:50;;;;;;;;;;;16.00;99.90;;;;;;5025025;28;19987;-64
2022/10/15 10:58:20;;;;;;;;;;;15.80;99.90;;;;;;5018818;28;20009;-64
2022/10/15 11:00:48;;;;;;;;;;;15.70;99.90;;;;;;5021610;28;20279;-64
2022/10/15 11:03:26;;;;;;;;;;;15.60;99.90;;;;;;5019932;28;19917;-64
2022/10/15 11:05:54;;;;;;;;;;;15.50;99.90;;;;;;5029078;28;19917;-64
2022/10/15 11:08:20;;;;;;;;;;;15.40;99.90;;;;;;5022903;28;20016;-64
2022/10/15 11:10:51;;;;;;;;;;;15.30;99.90;;;;;;5025318;28;20017;-64
2022/10/15 11:13:37;;;;;;;;;;;15.10;99.90;;;;;;5023452;28;19951;-64
2022/10/15 11:16:09;;;;;;;;;;;15.10;99.90;;;;;;5021494;28;19918;-64
2022/10/15 11:18:52;;;;;;;;;;;15.10;99.90;;;;;;5020294;28;19956;-64
2022/10/15 11:21:36;;;;;;;;;;;15.10;99.90;;;;;;5023627;28;19917;-64
2022/10/15 11:24:14;;;;;;;;;;;15.10;99.90;;;;;;5035460;28;20304;-63
2022/10/15 11:26:40;;;;;;;;;;;15.00;99.90;;;;;;5019626;28;19927;-63
2022/10/15 11:29:18;;;;;;;;;;;15.00;99.90;;;;;;5017926;28;19930;-63
2022/10/15 11:31:44;;;;;;;;;;;14.90;99.90;;;;;;5022506;28;20356;-63
2022/10/15 11:34:28;;;;;;;;;;;15.00;99.90;;;;;;5020582;28;19963;-63
2022/10/15 11:37:07;;;;;;;;;;;15.00;99.90;;;;;;5024017;28;20008;-64
2022/10/15 11:39:43;;;;;;;;;;;15.10;99.90;;;;;;5019695;28;20347;-63
2022/10/15 11:42:23;;;;;;;;;;;15.20;99.90;;;;;;5022144;28;19921;-63
2022/10/15 11:45:07;;;;;;;;;;;15.20;99.90;;;;;;5021134;28;19932;-64
2022/10/15 11:47:36;;;;;;;;;;;15.20;99.90;;;;;;5026388;28;20404;-63
2022/10/15 11:50:12;;;;;;;;;;;15.20;99.90;;;;;;5023681;28;20349;-63
2022/10/15 11:52:53;;;;;;;;;;;15.20;99.90;;;;;;5029235;28;19921;-63
2022/10/15 11:55:42;;;;;;;;;;;15.20;99.90;;;;;;5035375;28;20396;-64
2022/10/15 11:58:27;;;;;;;;;;;15.30;99.90;;;;;;5013146;28;20393;-63
2022/10/15 12:00:55;;;;;;;;;;;15.40;99.90;;;;;;5023647;28;19975;-64
2022/10/15 12:03:25;;;;;;;;;;;15.50;99.90;;;;;;5023318;28;19944;-63
2022/10/15 12:05:51;;;;;;;;;;;15.50;99.90;;;;;;5026136;28;19921;-64
2022/10/15 12:08:17;;;;;;;;;;;15.50;99.90;;;;;;5019564;28;20283;-64
2022/10/15 12:10:54;;;;;;;;;;;15.50;99.90;;;;;;5020248;28;19928;-63
2022/10/15 12:13:39;;;;;;;;;;;15.50;99.90;;;;;;5021520;28;20224;-63
2022/10/15 12:16:22;;;;;;;;;;;15.40;99.90;;;;;;5016783;28;19932;-63
2022/10/15 12:19:06;;;;;;;;;;;15.40;99.90;;;;;;5020797;28;20012;-63
2022/10/15 12:21:43;;;;;;;;;;;15.40;99.90;;;;;;5021157;28;19917;-63
2022/10/15 12:24:28;;;;;;;;;;;15.40;99.90;;;;;;5023074;28;19940;-64
2022/10/15 12:26:53;;;;;;;;;;;15.30;99.90;;;;;;5020230;28;19925;-64
2022/10/15 12:29:20;;;;;;;;;;;15.40;99.90;;;;;;5020615;28;19921;-64
2022/10/15 12:31:47;;;;;;;;;;;15.30;99.90;;;;;;5021339;28;20004;-64
2022/10/15 12:34:24;;;;;;;;;;;15.40;99.90;;;;;;5025323;28;19924;-64
2022/10/15 12:36:58;;;;;;;;;;;15.40;99.90;;;;;;5022969;28;19918;-64
2022/10/15 12:39:23;;;;;;;;;;;15.30;99.90;;;;;;5022525;28;20229;-63
2022/10/15 12:41:49;;;;;;;;;;;15.20;99.90;;;;;;5019602;28;19918;-64
2022/10/15 12:44:31;;;;;;;;;;;15.20;99.90;;;;;;5027511;28;19917;-64
2022/10/15 12:46:57;;;;;;;;;;;15.20;99.90;;;;;;5014701;28;19928;-64
2022/10/15 12:49:26;;;;;;;;;;;15.10;99.90;;;;;;5022713;28;19967;-64
2022/10/15 12:51:55;;;;;;;;;;;15.10;99.90;;;;;;5020737;28;19917;-64
2022/10/15 12:54:35;;;;;;;;;;;15.00;99.90;;;;;;5022371;28;20368;-64
2022/10/15 12:57:03;;;;;;;;;;;14.90;99.90;;;;;;5022442;28;19921;-64
2022/10/15 12:59:49;;;;;;;;;;;14.90;99.90;;;;;;5022529;28;19971;-65
2022/10/15 13:02:44;;;;;;;;;;;14.90;99.90;;;;;;5016285;28;19925;-64
2022/10/15 13:05:28;;;;;;;;;;;14.80;99.90;;;;;;5011384;28;19920;-64
2022/10/15 13:07:54;;;;;;;;;;;14.80;99.90;;;;;;5023720;28;19917;-64
2022/10/15 13:10:50;;;;;;;;;;;14.80;99.90;;;;;;5020675;28;19972;-64
2022/10/15 13:13:18;;;;;;;;;;;14.80;99.90;;;;;;5018698;28;20499;-64
2022/10/15 13:15:49;;;;;;;;;;;14.80;99.90;;;;;;5021232;28;20007;-64
2022/10/15 13:18:15;;;;;;;;;;;14.80;99.90;;;;;;5017932;28;19924;-64
2022/10/15 13:20:44;;;;;;;;;;;14.80;99.90;;;;;;5023044;28;20599;-64
2022/10/15 13:23:20;;;;;;;;;;;14.90;99.90;;;;;;5022663;28;20381;-64
2022/10/15 13:25:46;;;;;;;;;;;14.90;99.90;;;;;;5022656;28;19928;-64
2022/10/15 13:28:31;;;;;;;;;;;14.90;99.90;;;;;;5019660;28;19996;-64
2022/10/15 13:30:57;;;;;;;;;;;14.90;99.90;;;;;;5020953;28;19975;-65
2022/10/15 13:33:23;;;;;;;;;;;14.90;99.90;;;;;;5021047;28;19956;-64
2022/10/15 13:35:48;;;;;;;;;;;14.90;99.90;;;;;;5023460;28;19921;-64
2022/10/15 13:38:20;;;;;;;;;;;14.90;99.90;;;;;;5020836;28;19921;-64
2022/10/15 13:40:47;;;;;;;;;;;14.90;99.90;;;;;;5020608;28;19923;-64
2022/10/15 13:43:17;;;;;;;;;;;14.90;99.90;;;;;;5024023;28;20011;-64
2022/10/15 13:45:47;;;;;;;;;;;14.90;99.90;;;;;;5018513;28;20200;-64
2022/10/15 13:48:18;;;;;;;;;;;14.90;99.90;;;;;;5017869;28;19917;-64
2022/10/15 13:50:45;;;;;;;;;;;14.90;99.90;;;;;;5020809;28;19929;-64
2022/10/15 13:53:15;;;;;;;;;;;14.90;99.90;;;;;;5014521;28;20381;-64
2022/10/15 13:55:45;;;;;;;;;;;14.90;99.90;;;;;;5021779;28;19933;-64
2022/10/15 13:58:12;;;;;;;;;;;14.90;99.90;;;;;;5018318;28;20108;-64
2022/10/15 14:00:38;;;;;;;;;;;14.90;99.90;;;;;;5018054;28;19952;-64
2022/10/15 14:03:14;;;;;;;;;;;14.90;99.90;;;;;;5021912;28;19921;-64
2022/10/15 14:05:41;;;;;;;;;;;15.00;99.90;;;;;;5024882;28;19917;-64
2022/10/15 14:08:33;;;;;;;;;;;15.00;99.90;;;;;;5024284;28;19921;-64
2022/10/15 14:10:59;;;;;;;;;;;15.00;99.90;;;;;;5023458;28;19925;-64
2022/10/15 14:13:25;;;;;;;;;;;15.00;99.90;;;;;;5025126;28;20288;-65
2022/10/15 14:15:50;;;;;;;;;;;15.00;99.90;;;;;;5027102;28;19982;-64
2022/10/15 14:18:17;;;;;;;;;;;15.00;99.90;;;;;;5023512;28;20396;-65
2022/10/15 14:20:46;;;;;;;;;;;15.00;99.90;;;;;;5026592;28;19917;-64
2022/10/15 14:23:19;;;;;;;;;;;15.10;99.90;;;;;;5023556;28;19924;-64
2022/10/15 14:25:50;;;;;;;;;;;15.10;99.90;;;;;;5021339;28;19979;-65
2022/10/15 14:28:17;;;;;;;;;;;15.20;99.90;;;;;;5023737;28;20275;-64